Time;durP1;ratioP1;P1;durP2;ratioP2;P2;SDS_P1;SDS_P2;PMS_P1;PMS_P2;Temp;Humidity;BMP_temperature;BMP_pressure;BME280_temperature;BME280_humidity;BME280_pressure;Samples;Min_cycle;Max_cycle;Signal;HPM_P1;HPM_P2
2023/06/12 00:00:31;;;;;;;22.27;13.35;;;;;;;-143.21;84.95;71318.72;5070961;28;20223;-82
2023/06/12 00:02:58;;;;;;;23.45;13.38;;;;;;;-143.21;84.99;71320.69;5070347;28;20201;-81
2023/06/12 00:05:27;;;;;;;24.15;14.90;;;;;;;-143.21;85.83;71330.63;5070519;28;20197;-82
2023/06/12 00:07:58;;;;;;;24.58;13.73;;;;;;;-143.21;85.14;71330.63;5070582;28;20700;-82
2023/06/12 00:10:25;;;;;;;23.50;13.52;;;;;;;-143.21;84.76;71340.53;5070513;28;20748;-82
2023/06/12 00:12:53;;;;;;;23.27;11.32;;;;;;;-143.21;85.29;71346.47;5070108;28;20588;-79
2023/06/12 00:15:20;;;;;;;20.50;11.82;;;;;;;-143.21;84.81;71352.44;5071444;28;20193;-79
2023/06/12 00:17:48;;;;;;;21.30;12.50;;;;;;;-143.21;84.97;71366.31;5073942;28;20181;-79
2023/06/12 00:20:14;;;;;;;18.02;11.90;;;;;;;-143.21;85.34;71360.34;5073863;28;20193;-80
2023/06/12 00:22:41;;;;;;;18.95;11.73;;;;;;;-143.21;85.37;71358.38;5065599;28;20194;-80
2023/06/12 00:25:10;;;;;;;20.70;10.88;;;;;;;-143.21;85.75;71362.34;5054050;28;20198;-81
2023/06/12 00:27:37;;;;;;;22.50;11.38;;;;;;;-143.21;86.20;71352.44;5053821;28;20197;-81
2023/06/12 00:30:04;;;;;;;19.55;11.52;;;;;;;-143.21;85.98;71360.34;5053526;28;20770;-81
2023/06/12 00:32:31;;;;;;;14.27;10.88;;;;;;;-143.21;86.44;71364.31;5053542;28;20295;-80
2023/06/12 00:34:58;;;;;;;18.73;10.85;;;;;;;-143.21;86.39;71360.34;5053640;28;20197;-81
2023/06/12 00:37:25;;;;;;;19.77;11.02;;;;;;;-143.21;86.38;71356.38;5053135;28;20190;-81
2023/06/12 00:39:52;;;;;;;18.38;10.95;;;;;;;-143.21;85.99;71358.38;5053788;28;20226;-81
2023/06/12 00:42:21;;;;;;;17.55;11.27;;;;;;;-143.21;85.92;71358.38;5053851;28;20610;-80
2023/06/12 00:44:48;;;;;;;14.95;11.18;;;;;;;-143.21;86.30;71354.41;5053399;28;20191;-81
2023/06/12 00:47:21;;;;;;;17.00;11.00;;;;;;;-143.21;86.73;71364.31;5053685;28;20575;-81
2023/06/12 00:49:49;;;;;;;18.33;11.25;;;;;;;-143.21;86.88;71358.38;5053586;28;20308;-80
2023/06/12 00:52:16;;;;;;;17.30;11.70;;;;;;;-143.21;86.55;71352.44;5058007;28;20205;-81
2023/06/12 00:54:45;;;;;;;18.83;11.57;;;;;;;-143.21;86.46;71362.34;5073635;28;20647;-81
2023/06/12 00:57:12;;;;;;;26.17;11.25;;;;;;;-143.21;86.55;71356.38;5073290;28;20193;-82
2023/06/12 00:59:41;;;;;;;18.73;11.32;;;;;;;-143.21;85.94;71344.50;5073660;28;20200;-82
2023/06/12 01:02:09;;;;;;;20.65;11.35;;;;;;;-143.21;85.61;71340.53;5073476;28;20197;-82
2023/06/12 01:04:37;;;;;;;22.75;10.90;;;;;;;-143.21;85.55;71348.47;5073182;28;20193;-83
2023/06/12 01:07:11;;;;;;;25.83;11.63;;;;;;;-143.21;85.44;71340.53;5073670;28;20200;-81
2023/06/12 01:09:49;;;;;;;16.77;10.35;;;;;;;-143.21;85.03;71332.59;5073037;28;20738;-82
2023/06/12 01:12:17;;;;;;;19.98;9.95;;;;;;;-143.21;84.51;71330.63;5073090;28;20192;-82
2023/06/12 01:14:46;;;;;;;13.73;9.77;;;;;;;-143.21;84.18;71332.59;5073025;28;20189;-82
2023/06/12 01:17:13;;;;;;;16.10;10.57;;;;;;;-143.21;83.91;71330.63;5072968;28;20198;-82
2023/06/12 01:19:42;;;;;;;19.92;9.95;;;;;;;-143.21;83.78;71324.66;5073165;28;20196;-82
2023/06/12 01:22:13;;;;;;;12.35;9.80;;;;;;;-143.21;84.23;71334.59;5069482;28;20292;-81
2023/06/12 01:25:07;;;;;;;17.88;9.98;;;;;;;-143.21;83.96;71326.66;5052935;28;20198;-81
2023/06/12 01:27:48;;;;;;;13.27;9.25;;;;;;;-143.21;84.06;71326.66;5052770;28;20225;-81
2023/06/12 01:30:43;;;;;;;12.88;9.20;;;;;;;-143.21;84.48;71336.56;5053152;28;20198;-82
2023/06/12 01:33:30;;;;;;;14.35;9.10;;;;;;;-143.21;83.87;71328.63;5052691;28;20619;-82
2023/06/12 01:36:00;;;;;;;18.77;10.45;;;;;;;-143.21;83.71;71318.72;5052988;28;20190;-81
2023/06/12 01:38:30;;;;;;;15.40;10.52;;;;;;;-143.21;83.88;71320.69;5052951;28;20652;-82
2023/06/12 01:40:59;;;;;;;12.55;8.20;;;;;;;-143.21;83.20;71336.56;5052483;28;20732;-81
2023/06/12 01:43:26;;;;;;;14.07;8.23;;;;;;;-143.21;83.55;71366.31;5052848;28;20281;-82
2023/06/12 01:45:53;;;;;;;12.68;7.68;;;;;;;-143.21;83.85;71368.28;5052699;28;20205;-81
2023/06/12 01:48:21;;;;;;;14.23;7.75;;;;;;;-143.21;83.13;71370.28;5052672;28;20190;-81
2023/06/12 01:50:48;;;;;;;11.68;7.00;;;;;;;-143.21;83.08;71380.19;5051801;28;20218;-81
2023/06/12 01:53:15;;;;;;;10.60;7.80;;;;;;;-143.21;83.28;71388.09;5064730;28;20211;-82
2023/06/12 01:55:42;;;;;;;13.88;7.68;;;;;;;-143.21;83.90;71396.03;5071872;28;20550;-82
2023/06/12 01:58:09;;;;;;;17.13;8.00;;;;;;;-143.21;83.60;71386.13;5072435;28;20197;-82
2023/06/12 02:00:36;;;;;;;13.43;8.00;;;;;;;-143.21;83.94;71388.09;5071729;28;20550;-80
2023/06/12 02:03:03;;;;;;;13.38;8.40;;;;;;;-143.21;84.29;71380.19;5059628;28;20226;-81
2023/06/12 02:05:31;;;;;;;16.45;8.68;;;;;;;-143.21;85.05;71378.19;5052156;28;20665;-82
2023/06/12 02:07:58;;;;;;;16.98;9.15;;;;;;;-143.21;85.70;71376.22;5052190;28;20198;-82
2023/06/12 02:10:24;;;;;;;16.33;9.48;;;;;;;-143.21;86.01;71376.22;5051770;28;20647;-81
2023/06/12 02:12:51;;;;;;;16.05;9.23;;;;;;;-143.21;85.72;71370.28;5052150;28;20742;-82
2023/06/12 02:15:20;;;;;;;18.15;9.20;;;;;;;-143.21;85.65;71368.28;5052335;28;20201;-82
2023/06/12 02:17:46;;;;;;;19.88;9.70;;;;;;;-143.21;85.48;71370.28;5052368;28;20724;-81
2023/06/12 02:20:13;;;;;;;15.63;9.88;;;;;;;-143.21;85.72;71372.25;5052122;28;20193;-82
2023/06/12 02:22:41;;;;;;;13.98;9.23;;;;;;;-143.21;86.03;71364.31;5060277;28;20253;-83
2023/06/12 02:25:09;;;;;;;20.08;9.30;;;;;;;-143.21;85.89;71356.38;5072443;28;20572;-83
2023/06/12 02:27:36;;;;;;;16.10;9.85;;;;;;;-143.21;84.69;71352.44;5072143;28;20695;-83
2023/06/12 02:30:03;;;;;;;12.90;9.13;;;;;;;-143.21;84.13;71360.34;5073131;28;20275;-82
2023/06/12 02:32:33;;;;;;;16.50;9.27;;;;;;;-143.21;83.28;71356.38;5071815;28;20732;-83
2023/06/12 02:35:00;;;;;;;17.13;9.32;;;;;;;-143.21;83.21;71366.31;5071723;28;20216;-83
2023/06/12 02:37:30;;;;;;;14.30;9.20;;;;;;;-143.21;83.85;71376.22;5071051;28;20248;-82
2023/06/12 02:39:58;;;;;;;17.10;9.15;;;;;;;-143.21;83.50;71372.25;5071883;28;20284;-82
2023/06/12 02:42:24;;;;;;;16.58;9.48;;;;;;;-143.21;82.88;71364.31;5071733;28;20208;-83
2023/06/12 02:44:51;;;;;;;16.85;9.68;;;;;;;-143.21;82.26;71360.34;5071321;28;20665;-82
2023/06/12 02:47:18;;;;;;;15.32;10.02;;;;;;;-143.21;82.23;71364.31;5071540;28;20194;-82
2023/06/12 02:49:45;;;;;;;16.23;9.30;;;;;;;-143.21;82.14;71368.28;5071238;28;20770;-82
2023/06/12 02:52:12;;;;;;;13.85;10.00;;;;;;;-143.21;82.51;71368.28;5066897;28;20209;-82
2023/06/12 02:54:39;;;;;;;15.43;9.23;;;;;;;-143.21;82.73;71374.22;5051208;28;20699;-83
2023/06/12 02:57:08;;;;;;;14.73;9.18;;;;;;;-143.21;83.35;71378.19;5051120;28;20533;-83
2023/06/12 02:59:34;;;;;;;20.45;9.32;;;;;;;-143.21;83.51;71382.16;5051130;28;20201;-82
2023/06/12 03:02:01;;;;;;;15.98;9.82;;;;;;;-143.21;83.25;71372.25;5051377;28;20194;-82
2023/06/12 03:04:28;;;;;;;17.92;9.30;;;;;;;-143.21;83.11;71374.22;5051211;28;20190;-82
2023/06/12 03:06:55;;;;;;;15.73;9.43;;;;;;;-143.21;82.89;71386.13;5050886;28;20201;-83
2023/06/12 03:09:23;;;;;;;13.15;8.98;;;;;;;-143.21;83.37;71386.13;5050757;28;20593;-82
2023/06/12 03:11:53;;;;;;;19.58;9.30;;;;;;;-143.21;83.31;71388.09;5051161;28;20207;-83
2023/06/12 03:14:24;;;;;;;11.93;8.85;;;;;;;-143.21;83.31;71384.16;5051020;28;20197;-83
2023/06/12 03:16:50;;;;;;;14.18;8.70;;;;;;;-143.21;82.26;71382.16;5050774;28;20189;-83
2023/06/12 03:19:18;;;;;;;15.38;8.75;;;;;;;-143.21;82.07;71382.16;5051006;28;20240;-83
2023/06/12 03:21:45;;;;;;;12.95;9.30;;;;;;;-143.21;81.89;71384.16;5051193;28;20194;-82
2023/06/12 03:24:13;;;;;;;12.05;8.75;;;;;;;-143.21;82.07;71374.22;5071061;28;20220;-82
2023/06/12 03:26:41;;;;;;;15.32;8.88;;;;;;;-143.21;82.17;71374.22;5070821;28;20197;-84
2023/06/12 03:29:08;;;;;;;15.57;8.35;;;;;;;-143.21;82.03;71372.25;5071126;28;20197;-83
2023/06/12 03:31:37;;;;;;;16.27;9.38;;;;;;;-143.21;81.43;71364.31;5070154;28;21006;-82
2023/06/12 03:34:04;;;;;;;23.55;8.88;;;;;;;-143.21;81.34;71364.31;5050700;28;20201;-81
2023/06/12 03:36:33;;;;;;;18.73;9.20;;;;;;;-143.21;81.46;71358.38;5050574;28;20653;-81
2023/06/12 03:39:02;;;;;;;15.23;9.80;;;;;;;-143.21;81.10;71352.44;5050823;28;20673;-82
2023/06/12 03:41:31;;;;;;;14.70;9.25;;;;;;;-143.21;81.02;71346.47;5051249;28;20244;-82
2023/06/12 03:43:58;;;;;;;12.20;8.50;;;;;;;-143.21;80.69;71342.50;5051008;28;20197;-82
2023/06/12 03:46:24;;;;;;;11.27;8.77;;;;;;;-143.21;80.92;71348.47;5050894;28;20193;-81
2023/06/12 03:48:53;;;;;;;14.00;9.27;;;;;;;-143.21;80.53;71336.56;5051012;28;20202;-82
2023/06/12 03:51:19;;;;;;;13.88;9.38;;;;;;;-143.21;80.29;71338.53;5054687;28;20597;-81
2023/06/12 03:53:47;;;;;;;16.92;9.23;;;;;;;-143.21;80.24;71334.59;5054626;28;20209;-80
2023/06/12 03:56:13;;;;;;;14.73;9.38;;;;;;;-143.21;80.26;71332.59;5054696;28;20275;-80
2023/06/12 03:58:40;;;;;;;19.02;9.73;;;;;;;-143.21;80.28;71338.53;5054566;28;20259;-80
2023/06/12 04:01:07;;;;;;;14.25;9.07;;;;;;;-143.21;80.81;71342.50;5054291;28;21039;-80
2023/06/12 04:03:34;;;;;;;16.60;8.98;;;;;;;-143.21;80.52;71336.56;5054456;28;20237;-80
2023/06/12 04:06:02;;;;;;;12.75;8.95;;;;;;;-143.21;80.22;71344.50;5054510;28;20217;-81
2023/06/12 04:08:29;;;;;;;15.65;8.75;;;;;;;-143.21;80.27;71338.53;5054436;28;20194;-84
2023/06/12 04:10:56;;;;;;;17.23;10.48;;;;;;;-143.21;79.77;71334.59;5053910;28;20657;-82
2023/06/12 04:13:22;;;;;;;21.85;12.93;;;;;;;-143.21;79.08;71336.56;5054798;28;20194;-82
2023/06/12 04:15:50;;;;;;;18.65;13.23;;;;;;;-143.21;78.88;71332.59;5054207;28;20198;-83
2023/06/12 04:18:17;;;;;;;16.42;11.88;;;;;;;-143.21;79.01;71336.56;5054088;28;20225;-82
2023/06/12 04:20:44;;;;;;;22.92;12.13;;;;;;;-143.21;78.84;71332.59;5054050;28;20194;-83
2023/06/12 04:23:16;;;;;;;16.13;11.80;;;;;;;-143.21;78.33;71322.69;5053642;28;20296;-83
2023/06/12 04:25:43;;;;;;;19.30;11.10;;;;;;;-143.21;78.12;71316.75;5054420;28;20244;-85
2023/06/12 04:28:13;;;;;;;17.40;10.23;;;;;;;-143.21;78.10;71312.78;5054302;28;20290;-85
2023/06/12 04:30:41;;;;;;;13.50;8.85;;;;;;;-143.21;77.48;71312.78;5053897;28;20214;-85
2023/06/12 04:33:09;;;;;;;13.25;9.45;;;;;;;-143.21;77.33;71312.78;5053784;28;20237;-85
2023/06/12 04:35:37;;;;;;;16.63;9.40;;;;;;;-143.21;77.20;71310.78;5053956;28;20333;-84
2023/06/12 04:38:05;;;;;;;16.58;8.82;;;;;;;-143.21;76.90;71304.84;5054071;28;20205;-86
2023/06/12 04:40:36;;;;;;;14.02;8.80;;;;;;;-143.21;76.76;71304.84;5055540;28;20255;-85
2023/06/12 04:43:05;;;;;;;12.68;7.93;;;;;;;-143.21;76.99;71304.84;5057673;28;20285;-84
2023/06/12 04:45:33;;;;;;;17.75;8.10;;;;;;;-143.21;76.36;71304.84;5054814;28;20185;-86
2023/06/12 04:48:01;;;;;;;14.75;8.77;;;;;;;-143.21;76.33;71306.81;5054322;28;20669;-83
2023/06/12 04:50:32;;;;;;;12.45;8.60;;;;;;;-143.21;76.31;71306.81;5054979;28;20253;-85
2023/06/12 04:52:59;;;;;;;11.95;8.57;;;;;;;-143.21;76.30;71316.75;5065519;28;20204;-85
2023/06/12 04:55:29;;;;;;;14.02;8.30;;;;;;;-143.21;76.41;71320.69;5073605;28;20201;-86
2023/06/12 04:57:58;;;;;;;11.68;8.45;;;;;;;-143.21;77.08;71326.66;5074493;28;20205;-85
2023/06/12 05:00:25;;;;;;;11.18;8.40;;;;;;;-143.21;77.66;71318.72;5074801;28;20228;-85
2023/06/12 05:02:55;;;;;;;16.02;8.75;;;;;;;-143.21;77.22;71316.75;5079596;28;20201;-83
2023/06/12 05:05:22;;;;;;;12.82;8.50;;;;;;;-143.21;77.56;71326.66;5079765;28;20636;-84
2023/06/12 05:07:49;;;;;;;14.38;8.75;;;;;;;-143.21;78.17;71332.59;5076907;28;20588;-84
2023/06/12 05:10:16;;;;;;;19.73;9.95;;;;;;;-143.21;78.54;71332.59;5074390;28;20224;-84
2023/06/12 05:12:43;;;;;;;13.00;8.60;;;;;;;-143.21;78.60;71320.69;5073976;28;20209;-84
2023/06/12 05:15:12;;;;;;;11.73;7.90;;;;;;;-143.21;77.46;71306.81;5067565;28;20678;-83
2023/06/12 05:17:39;;;;;;;14.10;7.80;;;;;;;-143.21;77.32;71288.97;5054417;28;20198;-85
2023/06/12 05:20:08;;;;;;;13.00;7.82;;;;;;;-143.21;76.90;71283.03;5053623;28;20583;-85
2023/06/12 05:22:36;;;;;;;17.27;8.15;;;;;;;-143.21;76.95;71277.09;5061720;28;20233;-86
2023/06/12 05:25:04;;;;;;;11.80;8.02;;;;;;;-143.21;76.90;71273.13;5072335;28;20202;-84
2023/06/12 05:27:34;;;;;;;22.65;9.10;;;;;;;-143.21;76.35;71267.19;5073396;28;20247;-86
2023/06/12 05:30:00;;;;;;;13.93;8.98;;;;;;;-143.21;75.95;71267.19;5073353;28;20204;-85
2023/06/12 05:32:29;;;;;;;11.07;8.80;;;;;;;-143.21;75.85;71288.97;5073284;28;20317;-85
2023/06/12 05:34:58;;;;;;;13.32;8.80;;;;;;;-143.21;76.14;71285.03;5056777;28;20213;-84
2023/06/12 05:37:25;;;;;;;15.27;8.90;;;;;;;-143.21;76.10;71283.03;5053031;28;20191;-85
2023/06/12 05:39:52;;;;;;;20.48;8.85;;;;;;;-143.21;75.80;71271.13;5052473;28;20202;-84
2023/06/12 05:42:18;;;;;;;15.43;8.80;;;;;;;-143.21;75.56;71275.09;5052806;28;20803;-85
2023/06/12 05:44:46;;;;;;;20.30;8.32;;;;;;;-143.21;75.93;71277.09;5066966;28;20201;-84
2023/06/12 05:47:13;;;;;;;21.27;8.75;;;;;;;-143.21;75.67;71269.16;5072647;28;20194;-82
2023/06/12 05:49:41;;;;;;;17.85;8.70;;;;;;;-143.21;75.41;71277.09;5073152;28;20186;-83
2023/06/12 05:52:10;;;;;;;14.32;8.30;;;;;;;-143.21;75.77;71269.16;5072933;28;20669;-83
2023/06/12 05:54:37;;;;;;;12.15;8.25;;;;;;;-143.21;75.31;71245.38;5057438;28;20220;-83
2023/06/12 05:57:57;;;;;;;14.70;8.65;;;;;;;-143.21;73.65;71237.44;5052545;28;20837;-85
2023/06/12 06:00:24;;;;;;;12.10;8.05;;;;;;;-143.21;73.07;71229.50;5052390;28;20213;-88
2023/06/12 06:02:54;;;;;;;16.23;8.40;;;;;;;-143.21;73.25;71213.66;5052293;28;20696;-85
2023/06/12 06:05:22;;;;;;;11.18;8.63;;;;;;;-143.21;73.25;71205.72;5053213;28;20665;-85
2023/06/12 06:07:50;;;;;;;12.07;8.00;;;;;;;-143.21;72.70;71191.84;5051324;28;21026;-85
2023/06/12 06:10:17;;;;;;;12.65;8.57;;;;;;;-143.21;72.33;71183.91;5047708;28;20194;-81
2023/06/12 06:12:44;;;;;;;17.27;9.52;;;;;;;-143.21;72.15;71174.00;5049425;28;20313;-80
2023/06/12 06:15:11;;;;;;;13.10;9.27;;;;;;;-143.21;72.27;71174.00;5056316;28;20206;-85
2023/06/12 06:17:38;;;;;;;21.33;9.60;;;;;;;-143.21;71.13;71170.03;5071997;28;20215;-81
2023/06/12 06:20:06;;;;;;;15.10;9.43;;;;;;;-143.21;71.38;71177.97;5071801;28;20220;-79
2023/06/12 06:22:34;;;;;;;15.10;8.18;;;;;;;-143.21;71.72;71187.88;5067032;28;20241;-81
2023/06/12 06:25:01;;;;;;;23.30;9.35;;;;;;;-143.21;71.84;71185.88;5068605;28;20580;-82
2023/06/12 06:27:27;;;;;;;16.95;9.07;;;;;;;-143.21;72.03;71175.97;5071882;28;20197;-79
2023/06/12 06:29:55;;;;;;;16.48;9.48;;;;;;;-143.21;71.17;71168.06;5084405;28;20197;-79
2023/06/12 06:32:21;;;;;;;15.55;9.75;;;;;;;-143.21;70.89;71174.00;5091334;28;20225;-80
2023/06/12 06:34:48;;;;;;;14.73;9.23;;;;;;;-143.21;70.38;71172.00;5083514;28;20201;-80
2023/06/12 06:37:15;;;;;;;16.77;11.63;;;;;;;-143.21;69.80;71175.97;5066704;28;20189;-81
2023/06/12 06:39:43;;;;;;;17.38;10.95;;;;;;;-143.21;69.79;71174.00;5053473;28;20203;-80
2023/06/12 06:42:11;;;;;;;17.52;10.85;;;;;;;-143.21;70.38;71162.09;5050438;28;20206;-81
2023/06/12 06:44:38;;;;;;;17.30;11.23;;;;;;;-143.21;69.78;71144.25;5052291;28;20280;-82
2023/06/12 06:47:05;;;;;;;15.57;10.63;;;;;;;-143.21;69.48;71130.38;5051720;28;20247;-81
2023/06/12 06:49:31;;;;;;;18.40;10.88;;;;;;;-143.21;69.40;71126.41;5051286;28;20194;-80
2023/06/12 06:51:58;;;;;;;14.85;10.43;;;;;;;-143.21;69.63;71110.56;5061770;28;20224;-81
2023/06/12 06:54:25;;;;;;;16.33;10.77;;;;;;;-143.21;69.45;71094.69;5055326;28;20198;-82
2023/06/12 06:56:53;;;;;;;15.20;10.02;;;;;;;-143.21;69.24;71072.88;5050811;28;20684;-82
2023/06/12 06:59:20;;;;;;;18.02;11.30;;;;;;;-143.21;69.32;71055.06;5050849;28;20255;-81
2023/06/12 07:01:47;;;;;;;13.77;9.73;;;;;;;-143.21;69.00;71035.22;5050450;28;20199;-81
2023/06/12 07:04:14;;;;;;;18.42;10.07;;;;;;;-143.21;67.95;71021.34;5051555;28;20716;-80
2023/06/12 07:06:40;;;;;;;16.13;11.20;;;;;;;-143.21;65.85;71011.44;5050825;28;20202;-82
2023/06/12 07:09:08;;;;;;;20.73;9.80;;;;;;;-143.21;66.44;71023.34;5050489;28;20267;-82
2023/06/12 07:11:35;;;;;;;15.00;10.32;;;;;;;-143.21;67.00;71017.38;5058640;28;20213;-80
2023/06/12 07:14:03;;;;;;;19.63;9.90;;;;;;;-143.21;67.78;71005.50;5060896;28;20198;-84
2023/06/12 07:16:33;;;;;;;16.15;10.25;;;;;;;-143.21;67.45;71003.50;5058071;28;20696;-82
2023/06/12 07:19:00;;;;;;;17.33;9.63;;;;;;;-143.21;67.17;70985.66;5070690;28;20629;-81
2023/06/12 07:21:27;;;;;;;14.50;10.45;;;;;;;-143.21;66.17;70977.72;5071450;28;20220;-81
2023/06/12 07:23:54;;;;;;;21.38;9.27;;;;;;;-143.21;66.51;70965.84;5052401;28;20202;-87
2023/06/12 07:26:21;;;;;;;21.52;8.43;;;;;;;-143.21;66.58;70959.91;5056617;28;20208;-80
2023/06/12 07:28:48;;;;;;;12.23;8.05;;;;;;;-143.21;64.45;70942.06;5071280;28;20197;-80
2023/06/12 07:31:16;;;;;;;18.10;9.77;;;;;;;-143.21;65.25;70936.09;5066654;28;20598;-80
2023/06/12 07:33:43;;;;;;;11.13;8.10;;;;;;;-143.21;65.14;70924.22;5051074;28;20197;-80
2023/06/12 07:36:10;;;;;;;11.57;7.60;;;;;;;-143.21;62.62;70916.28;5051086;28;20238;-79
2023/06/12 07:38:37;;;;;;;12.52;7.15;;;;;;;-143.21;62.54;70920.25;5051427;28;20673;-81
2023/06/12 07:41:04;;;;;;;11.32;6.75;;;;;;;-143.21;63.34;70918.25;5051816;28;20282;-80
2023/06/12 07:43:34;;;;;;;13.20;6.82;;;;;;;-143.21;62.39;70918.25;5051903;28;20202;-80
2023/06/12 07:46:01;;;;;;;11.90;7.35;;;;;;;-143.21;61.98;70918.25;5051408;28;20267;-81
2023/06/12 07:48:29;;;;;;;10.55;6.50;;;;;;;-143.21;60.78;70918.25;5051303;28;20692;-81
2023/06/12 07:50:55;;;;;;;15.05;6.82;;;;;;;-143.21;61.02;70928.19;5051024;28;20201;-80
2023/06/12 07:53:23;;;;;;;13.10;7.90;;;;;;;-143.21;61.06;70934.13;5061492;28;20359;-82
2023/06/12 07:55:50;;;;;;;13.30;7.75;;;;;;;-143.21;61.60;70951.97;5050974;28;20202;-82
2023/06/12 07:58:20;;;;;;;17.73;7.50;;;;;;;-143.21;61.57;70953.94;5076082;28;20201;-82
2023/06/12 08:00:46;;;;;;;10.32;7.55;;;;;;;-143.21;62.24;70959.91;5086221;28;20189;-83
2023/06/12 08:03:15;;;;;;;18.70;7.57;;;;;;;-143.21;61.55;70963.84;5084472;28;20185;-81
2023/06/12 08:05:43;;;;;;;14.05;7.10;;;;;;;-143.21;61.70;70971.78;5059610;28;20569;-82
2023/06/12 08:08:12;;;;;;;10.90;6.93;;;;;;;-143.21;61.70;70971.78;5059455;28;20202;-80
2023/06/12 08:10:38;;;;;;;13.40;6.72;;;;;;;-143.21;61.84;70971.78;5054728;28;20751;-84
2023/06/12 08:13:05;;;;;;;12.82;7.25;;;;;;;-143.21;61.80;70953.94;5052469;28;20252;-82
2023/06/12 08:15:32;;;;;;;24.17;6.40;;;;;;;-143.21;61.91;70940.06;5071146;28;20200;-82
2023/06/12 08:17:59;;;;;;;10.93;6.30;;;;;;;-143.21;61.33;70932.13;5070737;28;20212;-82
2023/06/12 08:20:27;;;;;;;8.70;5.65;;;;;;;-143.21;59.60;70932.13;5071000;28;20200;-82
2023/06/12 08:22:58;;;;;;;9.85;6.15;;;;;;;-143.21;59.83;70930.16;5061141;28;20202;-83
2023/06/12 08:25:25;;;;;;;13.45;7.05;;;;;;;-143.21;60.10;70926.19;5051948;28;20623;-83
2023/06/12 08:27:53;;;;;;;15.00;7.07;;;;;;;-143.21;60.32;70928.19;5051163;28;20198;-81
2023/06/12 08:30:20;;;;;;;16.77;7.50;;;;;;;-143.21;60.28;70928.19;5050619;28;20190;-82
2023/06/12 08:32:48;;;;;;;20.73;7.13;;;;;;;-143.21;60.47;70928.19;5050244;28;20797;-82
2023/06/12 08:35:15;;;;;;;16.52;7.22;;;;;;;-143.21;62.62;70930.16;5052357;28;20252;-82
2023/06/12 08:37:41;;;;;;;14.35;7.03;;;;;;;-143.21;63.61;70942.06;5053626;28;20206;-82
2023/06/12 08:40:12;;;;;;;19.75;7.43;;;;;;;-143.21;63.82;70953.94;5054096;28;20194;-82
2023/06/12 08:42:44;;;;;;;14.57;7.35;;;;;;;-143.21;64.25;70963.84;5054349;28;20186;-82
2023/06/12 08:45:15;;;;;;;11.13;7.30;;;;;;;-143.21;64.14;70977.72;5055529;28;20202;-82
2023/06/12 08:47:47;;;;;;;16.45;7.93;;;;;;;-143.21;64.46;70987.66;5066077;28;20739;-82
2023/06/12 08:50:15;;;;;;;13.68;7.78;;;;;;;-143.21;64.30;70999.53;5074129;28;20266;-82
2023/06/12 08:52:44;;;;;;;11.60;7.40;;;;;;;-143.21;64.52;71005.50;5070023;28;20725;-83
2023/06/12 08:55:14;;;;;;;19.10;7.90;;;;;;;-143.21;64.98;71007.47;5056953;28;20664;-83
2023/06/12 08:57:41;;;;;;;16.23;7.57;;;;;;;-143.21;65.63;71005.50;5053926;28;20277;-82
2023/06/12 09:00:12;;;;;;;11.55;6.78;;;;;;;-143.21;65.14;71007.47;5053975;28;20302;-81
2023/06/12 09:02:46;;;;;;;15.95;6.43;;;;;;;-143.21;64.20;71003.50;5053423;28;20210;-82
2023/06/12 09:05:17;;;;;;;17.90;6.40;;;;;;;-143.21;63.85;71007.47;5055093;28;20198;-82
2023/06/12 09:07:45;;;;;;;12.68;7.15;;;;;;;-143.21;65.09;71009.44;5053734;28;20703;-82
2023/06/12 09:10:15;;;;;;;14.68;6.95;;;;;;;-143.21;65.61;71015.41;5053931;28;20583;-82
2023/06/12 09:12:43;;;;;;;17.00;7.00;;;;;;;-143.21;66.26;71001.53;5053810;28;20260;-82
2023/06/12 09:15:11;;;;;;;13.93;6.90;;;;;;;-143.21;66.43;71005.50;5053794;28;20622;-81
2023/06/12 09:17:40;;;;;;;13.57;7.10;;;;;;;-143.21;66.38;71001.53;5053212;28;20920;-81
2023/06/12 09:20:08;;;;;;;12.02;7.05;;;;;;;-143.21;66.34;71017.38;5052990;28;20194;-82
2023/06/12 09:22:38;;;;;;;17.90;7.63;;;;;;;-143.21;67.21;71019.38;5056927;28;20202;-82
2023/06/12 09:25:07;;;;;;;15.40;8.70;;;;;;;-143.21;68.58;71027.28;5054984;28;20228;-82
2023/06/12 09:27:43;;;;;;;17.90;7.97;;;;;;;-143.21;68.97;71019.38;5056929;28;20622;-81
2023/06/12 09:30:22;;;;;;;13.98;8.90;;;;;;;-143.21;69.36;71019.38;5068116;28;20194;-82
2023/06/12 09:32:48;;;;;;;12.98;8.07;;;;;;;-143.21;69.54;71023.34;5066722;28;20230;-82
2023/06/12 09:35:17;;;;;;;14.73;9.20;;;;;;;-143.21;69.10;71019.38;5069754;28;20202;-82
2023/06/12 09:37:45;;;;;;;14.80;8.88;;;;;;;-143.21;69.07;71025.31;5055935;28;20198;-82
2023/06/12 09:40:13;;;;;;;12.38;7.72;;;;;;;-143.21;68.52;71025.31;5054535;28;20198;-82
2023/06/12 09:42:42;;;;;;;16.77;8.30;;;;;;;-143.21;68.92;71017.38;5054011;28;20198;-82
2023/06/12 09:45:14;;;;;;;15.38;8.52;;;;;;;-143.21;68.92;71013.41;5053505;28;20198;-81
2023/06/12 09:47:46;;;;;;;13.10;8.15;;;;;;;-143.21;69.25;71009.44;5052676;28;20956;-82
2023/06/12 09:50:13;;;;;;;12.98;9.13;;;;;;;-143.21;69.34;70999.53;5053011;28;20674;-82
2023/06/12 09:52:44;;;;;;;14.55;9.20;;;;;;;-143.21;69.33;70995.56;5052905;28;20222;-81
2023/06/12 09:55:13;;;;;;;20.17;10.77;;;;;;;-143.21;69.94;70997.56;5053255;28;20232;-83
2023/06/12 09:57:45;;;;;;;12.95;8.95;;;;;;;-143.21;70.59;70999.53;5052802;28;20692;-82
2023/06/12 10:00:16;;;;;;;19.13;9.60;;;;;;;-143.21;70.58;70997.56;5053077;28;20182;-82
2023/06/12 10:02:51;;;;;;;18.15;9.38;;;;;;;-143.21;70.58;70991.63;5052928;28;20273;-82
2023/06/12 10:05:23;;;;;;;12.88;8.80;;;;;;;-143.21;70.94;70987.66;5072007;28;20193;-82
2023/06/12 10:07:53;;;;;;;15.27;8.45;;;;;;;-143.21;69.76;70985.66;5070064;28;20182;-82
2023/06/12 10:10:22;;;;;;;17.00;9.43;;;;;;;-143.21;70.36;70989.63;5052199;28;20226;-81
2023/06/12 10:12:51;;;;;;;18.25;9.07;;;;;;;-143.21;71.76;70983.69;5052218;28;20253;-82
2023/06/12 10:15:18;;;;;;;12.07;8.57;;;;;;;-143.21;72.85;70977.72;5052898;28;20206;-82
2023/06/12 10:17:47;;;;;;;12.13;9.48;;;;;;;-143.21;72.83;70969.81;5052087;28;20197;-81
2023/06/12 10:20:15;;;;;;;16.48;8.32;;;;;;;-143.21;72.30;70969.81;5052339;28;20186;-81
2023/06/12 10:22:42;;;;;;;11.48;8.13;;;;;;;-143.21;71.88;70971.78;5051996;28;20214;-82
2023/06/12 10:25:10;;;;;;;16.50;8.65;;;;;;;-143.21;71.28;70971.78;5052058;28;20202;-81
2023/06/12 10:27:38;;;;;;;12.55;8.52;;;;;;;-143.21;71.23;70967.81;5052339;28;20186;-82
2023/06/12 10:30:11;;;;;;;11.20;8.32;;;;;;;-143.21;71.97;70957.91;5051925;28;20198;-82
2023/06/12 10:32:39;;;;;;;14.20;8.55;;;;;;;-143.21;71.20;70948.00;5057299;28;20306;-82
2023/06/12 10:35:07;;;;;;;15.18;8.52;;;;;;;-143.21;72.03;70949.97;5054212;28;20194;-81
2023/06/12 10:37:37;;;;;;;16.73;8.00;;;;;;;-143.21;71.81;70944.03;5051918;28;20208;-82
2023/06/12 10:40:12;;;;;;;15.88;8.23;;;;;;;-143.21;70.94;70932.13;5051840;28;20263;-82
2023/06/12 10:42:44;;;;;;;13.95;8.40;;;;;;;-143.21;70.42;70922.22;5052038;28;20243;-80
2023/06/12 10:45:21;;;;;;;12.85;9.00;;;;;;;-143.21;69.96;70914.31;5053523;28;20246;-81
2023/06/12 10:48:17;;;;;;;17.05;8.25;;;;;;;-143.21;67.77;70906.38;5051423;28;20194;-81
2023/06/12 10:50:48;;;;;;;16.60;7.95;;;;;;;-143.21;64.75;70896.47;5027793;28;20235;-82
2023/06/12 10:53:16;;;;;;;10.68;7.90;;;;;;;-143.21;63.75;70890.50;5065848;28;20221;-80
2023/06/12 10:55:44;;;;;;;15.70;8.55;;;;;;;-143.21;64.67;70880.59;5065802;28;20201;-81
2023/06/12 10:58:14;;;;;;;15.65;8.63;;;;;;;-143.21;66.26;70886.53;5066418;28;20657;-81
2023/06/12 11:00:47;;;;;;;13.20;8.02;;;;;;;-143.21;65.92;70872.66;5052930;28;20625;-82
2023/06/12 11:03:16;;;;;;;15.40;7.63;;;;;;;-143.21;65.90;70872.66;5052863;28;20178;-82
2023/06/12 11:05:48;;;;;;;12.18;6.97;;;;;;;-143.21;64.99;70866.72;5052275;28;20695;-83
2023/06/12 11:08:15;;;;;;;10.82;6.47;;;;;;;-143.21;65.62;70864.75;5052488;28;20194;-82
2023/06/12 11:10:41;;;;;;;10.50;7.32;;;;;;;-143.21;65.19;70864.75;5051384;28;20190;-82
2023/06/12 11:13:08;;;;;;;13.77;7.60;;;;;;;-143.21;63.88;70866.72;5045423;28;20230;-82